Terminal Aerodrome Forecast
Issued by NWS

Home | Current Version | Previous Version | Text Only | Print | Product List | Glossary On
Versions: 1 2 3 4 5 6 7 8 9 10 11 12 13
000
FTUS41 KGYX 120858 AAA
TAFPSM
TAF AMD
KPSM 120858Z 1209/1306 04004KT 6SM -SN BKN090
      TEMPO 1213/1215 1SM -SN OVC003
     FM121500 11009KT 3SM RA OVC015
     FM122200 12011KT 2SM BR OVC003=

USA.gov is the U.S. government's official web portal to all federal, state and local government web resources and services.